Alexandria, Esler Airfield (KESF)

NameEsler Airfield
CityAlexandria
CountryUnited States
ICAOKESF
IATAESF
Altitude34 m
CoordinatesGoogle Map
Live Air TrafficLiveATC.net
METARKESF 112253Z AUTO 15005KT 10SM CLR 10/00 A3030 RMK AO2 SLP262 T01000000
2018-12-11 22:53:00 Wind: Southeast (150°) 2.57 m/s - Visibility: 16093.4 m - Temperature: 10 °C - Dew point: 0 °C - Humidity: 50.2% - Pressure: 1026.08 hPa

Sorry, no flights used the airport in this database.